Airfield :
LOGIN :

Register | Disclaimer

   EN    FR    IT 

 










Legend :    VFR   Marginal VFR   IFR   Intensive IFR   Very Intensive IFR
Visi :
Ceiling :
>= 8 km
>= 3000ft
5 to 8 km
1000 to 3000 ft
1500m to 5 km
500 to 1000 ft
800 to 1500m
200 to 500 ft
< 800m
< 200 ft
Symbols :   Thunderstorms  Fog  Heavy snow  Heavy precipitations  Wind > 20 kt
SIGMETs :     Misc.  Thunderstorms  Icing  Turbulence  Mountain Waves  Volcanic Ashes







- Airport Elevation : 138 ft
- IATA code : BIO


LEBB - Bilbao

CURRENT METAR :
  • 242200Z AUTO 00000KT 9999 NCD 19/13 Q1018

EXPIRED METARs :
  • 242130Z VRB01KT CAVOK 19/14 Q1018 NOSIG
  • 242100Z VRB02KT CAVOK 21/15 Q1018 NOSIG
  • 242030Z 10005KT CAVOK 22/13 Q1017 NOSIG
  • 242000Z VRB02KT CAVOK 24/13 Q1017 NOSIG
  • 241930Z 08003KT 030V120 CAVOK 25/13 Q1017 NOSIG

TAF TAF LEBB
Valid from the 24 at 18:00 until the 25 at 18:00 UTC


241700Z 2418/2518 VRB06KT CAVOK TX28/2513Z TN15/2504Z
TEMPO 2512/2518 03010KT
TEMPO 2512/2518 30010KT
No reported NOTAMs for that airfield.



MET'MAP, your aeronautical weather chart ! - Copyright ORBIFLY December 2007 - Disclaimer

ORBIFLY MET'MAP TEAM :

Programming & Development : Alexandra Zaïnal
Concept & Development : Baudouin d'Aumeries
Co-Development & Prog : Marc-Olivier Méhu
Technical & hardware support : Manuel Goepfert

Contact : metmap@orbifly.com




SOURCES & CREDITS :

   NOAA